createdAt,value
2019-01-28T00:00:23.023Z,16.07
2019-01-28T00:02:57.772Z,16.23
2019-01-28T00:05:32.973Z,16.00
2019-01-28T00:08:07.768Z,16.40
2019-01-28T00:10:45.159Z,16.00
2019-01-28T00:13:19.833Z,16.53
2019-01-28T00:16:12.315Z,16.13
2019-01-28T00:18:50.719Z,17.47
2019-01-28T00:21:25.189Z,16.70
2019-01-28T00:24:02.590Z,16.73
2019-01-28T00:26:57.013Z,17.27
2019-01-28T00:29:31.405Z,17.10
2019-01-28T00:32:06.297Z,17.70
2019-01-28T00:34:40.797Z,17.90
2019-01-28T00:37:16.162Z,17.93
2019-01-28T00:39:52.025Z,17.37
2019-01-28T00:42:27.107Z,18.77
2019-01-28T00:45:01.667Z,17.43
2019-01-28T00:47:36.495Z,17.90
2019-01-28T00:50:12.463Z,17.60
2019-01-28T00:52:47.694Z,17.03
2019-01-28T00:55:22.693Z,18.13
2019-01-28T00:57:57.668Z,17.07
2019-01-28T01:00:32.216Z,16.53
2019-01-28T01:03:07.082Z,17.03
2019-01-28T01:05:41.707Z,15.90
2019-01-28T01:08:16.718Z,16.33
2019-01-28T01:10:51.440Z,15.57
2019-01-28T01:13:26.320Z,15.57
2019-01-28T01:16:00.796Z,15.83
2019-01-28T01:18:35.742Z,16.43
2019-01-28T01:21:10.149Z,15.77
2019-01-28T01:23:44.797Z,15.73
2019-01-28T01:26:19.488Z,16.20
2019-01-28T01:28:54.323Z,15.63
2019-01-28T01:31:29.335Z,15.50
2019-01-28T01:34:04.019Z,15.47
2019-01-28T01:36:39.178Z,15.67
2019-01-28T01:39:13.809Z,15.27
2019-01-28T01:41:48.848Z,15.43
2019-01-28T01:44:23.765Z,14.77
2019-01-28T01:46:58.990Z,15.20
2019-01-28T01:49:33.675Z,16.07
2019-01-28T01:52:08.383Z,15.13
2019-01-28T01:54:44.025Z,14.63
2019-01-28T01:57:18.766Z,14.97
2019-01-28T01:59:53.772Z,14.20
2019-01-28T02:02:47.387Z,15.37
2019-01-28T02:05:22.229Z,14.53
2019-01-28T02:07:56.768Z,15.67
2019-01-28T02:10:31.043Z,15.13
2019-01-28T02:13:06.228Z,15.17
2019-01-28T02:15:40.934Z,15.67
2019-01-28T02:18:15.788Z,14.73
2019-01-28T02:20:50.758Z,14.27
2019-01-28T02:23:25.620Z,14.53
2019-01-28T02:26:00.213Z,14.27
2019-01-28T02:28:35.219Z,15.70
2019-01-28T02:31:09.860Z,14.60
2019-01-28T02:33:44.439Z,15.60
2019-01-28T02:36:19.751Z,15.50
2019-01-28T02:38:54.489Z,15.53
2019-01-28T02:41:29.218Z,15.20
2019-01-28T02:44:03.981Z,15.70
2019-01-28T02:46:38.736Z,15.33
2019-01-28T02:49:13.571Z,15.60
2019-01-28T02:51:48.964Z,16.10
2019-01-28T02:54:23.683Z,14.37
2019-01-28T02:56:58.392Z,15.70
2019-01-28T02:59:32.988Z,16.20
2019-01-28T03:02:08.378Z,16.07
2019-01-28T03:04:43.286Z,15.47
2019-01-28T03:07:17.722Z,15.20
2019-01-28T03:09:52.299Z,15.20
2019-01-28T03:12:27.095Z,15.47
2019-01-28T03:15:01.949Z,15.40
2019-01-28T03:17:36.622Z,15.58
2019-01-28T03:20:13.066Z,16.57
2019-01-28T03:22:48.099Z,15.57
2019-01-28T03:25:23.010Z,14.37
2019-01-28T03:27:57.927Z,14.57
2019-01-28T03:30:32.636Z,14.20
2019-01-28T03:33:07.495Z,16.27
2019-01-28T03:35:42.199Z,15.53
2019-01-28T03:38:16.782Z,15.83
2019-01-28T03:40:51.544Z,16.00
2019-01-28T03:43:26.439Z,15.23
2019-01-28T03:46:00.763Z,14.10
2019-01-28T03:48:35.532Z,15.30
2019-01-28T03:51:10.696Z,14.80
2019-01-28T03:54:04.273Z,15.53
2019-01-28T03:56:39.073Z,14.77
2019-01-28T03:59:13.956Z,15.77
2019-01-28T04:01:48.784Z,14.83
2019-01-28T04:04:23.472Z,15.00
2019-01-28T04:06:58.494Z,14.95
2019-01-28T04:09:32.699Z,15.07
2019-01-28T04:12:07.158Z,15.80
2019-01-28T04:14:41.688Z,14.03
2019-01-28T04:17:16.453Z,15.10
2019-01-28T04:19:51.204Z,16.40
2019-01-28T04:22:26.308Z,16.13
2019-01-28T04:25:00.637Z,15.07
2019-01-28T04:27:35.246Z,15.87
2019-01-28T04:30:13.634Z,15.90
2019-01-28T04:32:48.632Z,15.63
2019-01-28T04:35:23.674Z,16.12
2019-01-28T04:37:58.185Z,16.23
2019-01-28T04:40:33.431Z,16.43
2019-01-28T04:43:08.285Z,16.13
2019-01-28T04:45:42.883Z,16.73
2019-01-28T04:48:17.157Z,15.93
2019-01-28T04:50:51.962Z,16.23
2019-01-28T04:53:26.458Z,17.12
2019-01-28T04:56:01.074Z,16.87
2019-01-28T04:58:35.982Z,16.23
2019-01-28T05:01:11.107Z,16.90
2019-01-28T05:03:45.798Z,16.12
2019-01-28T05:06:22.548Z,16.97
2019-01-28T05:08:57.585Z,15.40
2019-01-28T05:11:31.951Z,15.40
2019-01-28T05:14:06.886Z,15.40
2019-01-28T05:16:41.645Z,15.03
2019-01-28T05:19:16.529Z,15.70
2019-01-28T05:21:51.395Z,14.33
2019-01-28T05:24:26.602Z,14.97
2019-01-28T05:27:01.809Z,15.10
2019-01-28T05:29:36.437Z,14.85
2019-01-28T05:32:11.071Z,16.00
2019-01-28T05:34:46.051Z,15.57
2019-01-28T05:37:20.737Z,14.83
2019-01-28T05:39:55.989Z,14.58
2019-01-28T05:42:30.782Z,14.03
2019-01-28T05:45:04.818Z,14.90
2019-01-28T05:47:39.347Z,14.90
2019-01-28T05:50:33.462Z,15.10
2019-01-28T05:53:27.352Z,14.53
2019-01-28T05:56:02.256Z,14.45
2019-01-28T05:58:38.972Z,15.32
2019-01-28T06:01:14.152Z,14.50
2019-01-28T06:03:48.710Z,14.68
2019-01-28T06:06:23.582Z,14.63
2019-01-28T06:08:58.336Z,15.15
2019-01-28T06:11:33.072Z,15.93
2019-01-28T06:14:07.625Z,14.47
2019-01-28T06:16:42.629Z,14.93
2019-01-28T06:19:17.542Z,15.17
2019-01-28T06:21:52.280Z,16.27
2019-01-28T06:24:27.033Z,14.47
2019-01-28T06:27:01.341Z,15.53
2019-01-28T06:29:35.636Z,15.30
2019-01-28T06:32:11.278Z,14.68
2019-01-28T06:34:45.867Z,14.28
2019-01-28T06:37:20.656Z,15.43
2019-01-28T06:39:55.421Z,13.98
2019-01-28T06:42:30.015Z,14.58
2019-01-28T06:45:04.678Z,14.80
2019-01-28T06:47:46.411Z,15.85
2019-01-28T06:50:16.037Z,14.58
2019-01-28T06:52:50.776Z,14.70
2019-01-28T06:55:25.454Z,14.83
2019-01-28T06:58:00.986Z,14.45
2019-01-28T07:00:37.156Z,13.27
2019-01-28T07:03:13.374Z,14.98
2019-01-28T07:05:48.184Z,14.47
2019-01-28T07:08:22.429Z,15.43
2019-01-28T07:10:57.329Z,14.93
2019-01-28T07:13:32.136Z,15.25
2019-01-28T07:16:07.063Z,15.58
2019-01-28T07:18:41.390Z,15.45
2019-01-28T07:21:16.142Z,14.78
2019-01-28T07:23:50.682Z,14.68
2019-01-28T07:26:25.265Z,14.50
2019-01-28T07:28:59.937Z,14.28
2019-01-28T07:31:36.246Z,15.38
2019-01-28T07:34:11.100Z,14.58
2019-01-28T07:36:46.007Z,14.43
2019-01-28T07:39:40.052Z,14.50
2019-01-28T07:42:14.486Z,13.03
2019-01-28T07:44:49.092Z,14.05
2019-01-28T07:47:23.689Z,14.70
2019-01-28T07:49:58.790Z,15.50
2019-01-28T07:52:33.014Z,15.23
2019-01-28T07:55:08.085Z,14.75
2019-01-28T07:57:42.289Z,14.60
2019-01-28T08:00:22.602Z,14.10
2019-01-28T08:02:57.416Z,14.37
2019-01-28T08:05:32.029Z,14.33
2019-01-28T08:08:06.736Z,15.23
2019-01-28T08:10:41.199Z,13.85
2019-01-28T08:13:16.947Z,14.47
2019-01-28T08:15:51.585Z,13.98
2019-01-28T08:18:26.914Z,14.03
2019-01-28T08:21:01.673Z,14.25
2019-01-28T08:23:36.605Z,14.07
2019-01-28T08:26:10.895Z,14.85
2019-01-28T08:28:45.746Z,14.38
2019-01-28T08:31:20.537Z,13.85
2019-01-28T08:33:55.541Z,14.18
2019-01-28T08:36:30.027Z,14.60
2019-01-28T08:39:05.409Z,14.00
2019-01-28T08:41:40.161Z,14.33
2019-01-28T08:44:16.099Z,14.05
2019-01-28T08:46:50.719Z,14.13
2019-01-28T08:49:26.094Z,14.78
2019-01-28T08:52:01.102Z,15.00
2019-01-28T08:54:35.906Z,13.58
2019-01-28T08:57:10.139Z,14.28
2019-01-28T08:59:44.678Z,15.00
2019-01-28T09:02:19.547Z,14.70
2019-01-28T09:04:54.036Z,14.87
2019-01-28T09:07:36.194Z,14.63
2019-01-28T09:10:12.008Z,14.43
2019-01-28T09:12:47.225Z,15.08
2019-01-28T09:15:24.231Z,14.58
2019-01-28T09:17:59.352Z,14.87
2019-01-28T09:20:34.397Z,15.13
2019-01-28T09:23:09.136Z,14.38
2019-01-28T09:25:43.913Z,14.15
2019-01-28T09:28:18.788Z,14.68
2019-01-28T09:30:53.602Z,14.05
2019-01-28T09:33:28.546Z,14.53
2019-01-28T09:36:03.069Z,14.28
2019-01-28T09:38:37.834Z,15.03
2019-01-28T09:41:21.171Z,14.23
2019-01-28T09:44:15.094Z,13.85
2019-01-28T09:46:50.216Z,14.73
2019-01-28T09:49:25.323Z,15.53
2019-01-28T09:52:02.933Z,14.93
2019-01-28T09:54:37.773Z,14.75
2019-01-28T09:57:30.040Z,13.78
2019-01-28T10:00:05.220Z,14.47
2019-01-28T10:02:39.774Z,15.65
2019-01-28T10:05:20.549Z,14.98
2019-01-28T10:08:14.417Z,14.93
2019-01-28T10:10:49.183Z,13.95
2019-01-28T10:13:26.279Z,15.07
2019-01-28T10:16:01.902Z,14.55
2019-01-28T10:18:41.780Z,14.07
2019-01-28T10:21:13.224Z,14.65
2019-01-28T10:23:48.088Z,14.47
2019-01-28T10:26:23.080Z,14.65
2019-01-28T10:28:57.409Z,14.58
2019-01-28T10:31:32.176Z,14.28
2019-01-28T10:34:07.322Z,14.03
2019-01-28T10:36:42.121Z,14.50
2019-01-28T10:39:17.577Z,14.93
2019-01-28T10:41:52.119Z,15.05
2019-01-28T10:44:26.720Z,14.83
2019-01-28T10:47:01.536Z,14.50
2019-01-28T10:49:36.104Z,15.00
2019-01-28T10:52:10.698Z,14.87
2019-01-28T10:54:45.564Z,15.05
2019-01-28T10:57:20.140Z,14.50
2019-01-28T10:59:55.203Z,14.03
2019-01-28T11:02:29.589Z,15.03
2019-01-28T11:05:04.288Z,14.78
2019-01-28T11:07:39.067Z,15.03
2019-01-28T11:10:17.523Z,14.65
2019-01-28T11:12:54.935Z,13.78
2019-01-28T11:15:31.989Z,15.13
2019-01-28T11:18:09.813Z,14.07
2019-01-28T11:20:44.372Z,14.18
2019-01-28T11:23:19.608Z,13.85
2019-01-28T11:25:54.544Z,14.23
2019-01-28T11:28:48.695Z,14.03
2019-01-28T11:31:23.498Z,14.58
2019-01-28T11:33:58.670Z,14.23
2019-01-28T11:36:33.657Z,14.00
2019-01-28T11:39:09.385Z,14.27
2019-01-28T11:41:44.332Z,14.47
2019-01-28T11:44:19.133Z,15.07
2019-01-28T11:46:54.306Z,15.20
2019-01-28T11:49:28.994Z,15.17
2019-01-28T11:52:04.003Z,14.77
2019-01-28T11:54:39.216Z,14.77
2019-01-28T11:57:31.761Z,14.70
2019-01-28T12:00:06.323Z,14.97
2019-01-28T12:02:41.273Z,15.10
2019-01-28T12:05:16.369Z,15.10
2019-01-28T12:07:51.177Z,15.03
2019-01-28T12:10:26.427Z,15.27
2019-01-28T12:13:01.215Z,14.93
2019-01-28T12:15:35.924Z,15.87
2019-01-28T12:18:10.760Z,14.60
2019-01-28T12:20:52.992Z,15.63
2019-01-28T12:23:22.021Z,14.77
2019-01-28T12:25:57.103Z,15.13
2019-01-28T12:28:32.136Z,15.40
2019-01-28T12:31:06.930Z,16.23
2019-01-28T12:33:45.306Z,15.00
2019-01-28T12:36:37.939Z,14.33
2019-01-28T12:39:14.090Z,14.77
2019-01-28T12:41:48.351Z,14.53
2019-01-28T12:44:42.210Z,15.93
2019-01-28T12:47:17.017Z,14.70
2019-01-28T12:49:52.635Z,15.23
2019-01-28T12:52:29.452Z,15.63
2019-01-28T12:55:04.779Z,15.90
2019-01-28T12:57:57.289Z,15.37
2019-01-28T13:00:39.628Z,15.03
2019-01-28T13:03:15.875Z,15.90
2019-01-28T13:05:50.855Z,16.73
2019-01-28T13:08:27.716Z,16.27
2019-01-28T13:11:02.125Z,16.20
2019-01-28T13:13:40.987Z,16.47
2019-01-28T13:16:12.845Z,15.77
2019-01-28T13:18:48.610Z,16.87
2019-01-28T13:21:23.092Z,15.60
2019-01-28T13:23:57.805Z,16.27
2019-01-28T13:26:32.038Z,16.37
2019-01-28T13:29:06.919Z,15.90
2019-01-28T13:31:41.383Z,16.50
2019-01-28T13:34:16.325Z,15.97
2019-01-28T13:36:51.173Z,17.80
2019-01-28T13:39:26.256Z,16.87
2019-01-28T13:42:01.083Z,17.07
2019-01-28T13:44:35.987Z,17.10
2019-01-28T13:47:11.514Z,16.60
2019-01-28T13:49:45.977Z,17.23
2019-01-28T13:52:21.165Z,16.75
2019-01-28T13:54:55.796Z,17.63
2019-01-28T13:57:30.401Z,17.87
2019-01-28T14:00:05.874Z,18.77
2019-01-28T14:02:40.997Z,19.00
2019-01-28T14:05:15.908Z,18.50
2019-01-28T14:07:50.264Z,19.97
2019-01-28T14:10:24.751Z,18.92
2019-01-28T14:12:59.690Z,19.77
2019-01-28T14:15:36.686Z,19.40
2019-01-28T14:18:12.754Z,19.57
2019-01-28T14:20:47.389Z,20.03
2019-01-28T14:23:22.098Z,18.95
2019-01-28T14:25:56.634Z,19.73
2019-01-28T14:28:31.200Z,19.82
2019-01-28T14:31:06.075Z,20.65
2019-01-28T14:33:40.531Z,21.25
2019-01-28T14:36:15.620Z,20.73
2019-01-28T14:38:50.135Z,21.25
2019-01-28T14:41:24.790Z,22.03
2019-01-28T14:44:00.136Z,21.90
2019-01-28T14:46:34.547Z,20.70
2019-01-28T14:49:09.683Z,21.27
2019-01-28T14:51:44.472Z,21.75
2019-01-28T14:54:19.455Z,23.37
2019-01-28T14:56:54.245Z,21.53
2019-01-28T14:59:28.651Z,24.17
2019-01-28T15:02:25.466Z,23.57
2019-01-28T15:05:00.102Z,23.37
2019-01-28T15:07:34.883Z,25.43
2019-01-28T15:10:10.030Z,24.52
2019-01-28T15:12:45.372Z,23.65
2019-01-28T15:15:21.886Z,24.03
2019-01-28T15:17:57.005Z,24.52
2019-01-28T15:20:31.811Z,23.83
2019-01-28T15:23:06.903Z,24.98
2019-01-28T15:25:41.441Z,25.20
2019-01-28T15:28:16.099Z,24.17
2019-01-28T15:30:51.473Z,23.10
2019-01-28T15:33:25.872Z,24.83
2019-01-28T15:36:00.285Z,25.08
2019-01-28T15:38:35.614Z,24.02
2019-01-28T15:41:10.379Z,23.43
2019-01-28T15:43:45.100Z,23.73
2019-01-28T15:46:20.270Z,24.35
2019-01-28T15:49:14.143Z,23.60
2019-01-28T15:51:48.900Z,22.63
2019-01-28T15:54:24.074Z,24.43
2019-01-28T15:56:58.763Z,23.83
2019-01-28T15:59:34.960Z,23.97
2019-01-28T16:02:09.529Z,23.63
2019-01-28T16:05:02.040Z,23.53
2019-01-28T16:07:37.093Z,22.87
2019-01-28T16:10:14.287Z,23.97
2019-01-28T16:12:48.849Z,24.05
2019-01-28T16:15:28.919Z,24.60
2019-01-28T16:18:22.647Z,24.02
2019-01-28T16:20:57.403Z,24.00
2019-01-28T16:23:33.166Z,24.30
2019-01-28T16:26:07.904Z,23.55
2019-01-28T16:28:42.409Z,24.20
2019-01-28T16:31:17.149Z,24.13
2019-01-28T16:33:51.899Z,24.43
2019-01-28T16:36:26.575Z,24.53
2019-01-28T16:39:00.964Z,25.07
2019-01-28T16:41:36.246Z,24.17
2019-01-28T16:44:10.981Z,24.67
2019-01-28T16:46:47.329Z,24.43
2019-01-28T16:49:22.097Z,25.60
2019-01-28T16:51:57.105Z,25.40
2019-01-28T16:54:31.765Z,24.50
2019-01-28T16:57:06.492Z,24.90
2019-01-28T17:00:00.056Z,24.93
2019-01-28T17:02:34.198Z,25.20
2019-01-28T17:05:09.693Z,25.20
2019-01-28T17:07:44.486Z,25.53
2019-01-28T17:10:21.518Z,27.20
2019-01-28T17:12:56.211Z,26.37
2019-01-28T17:15:31.833Z,26.97
2019-01-28T17:18:06.620Z,25.80
2019-01-28T17:20:41.364Z,26.30
2019-01-28T17:26:07.344Z,25.07
2019-01-28T17:28:44.490Z,25.53
2019-01-28T17:31:19.525Z,26.03
2019-01-28T17:33:54.155Z,28.00
2019-01-28T17:36:46.708Z,28.70
2019-01-28T17:39:22.308Z,29.90
2019-01-28T17:42:15.229Z,29.07
2019-01-28T17:44:49.992Z,29.10
2019-01-28T17:47:25.160Z,31.43
2019-01-28T17:50:01.316Z,30.70
2019-01-28T17:52:36.971Z,30.77
2019-01-28T17:55:12.085Z,30.07
2019-01-28T17:57:46.617Z,30.57
2019-01-28T18:00:30.906Z,30.90
2019-01-28T18:03:05.590Z,29.90
2019-01-28T18:05:40.312Z,30.17
2019-01-28T18:08:34.347Z,30.05
2019-01-28T18:11:08.906Z,29.80
2019-01-28T18:13:43.926Z,29.33
2019-01-28T18:16:18.444Z,28.23
2019-01-28T18:18:53.090Z,27.70
2019-01-28T18:21:27.379Z,27.47
2019-01-28T18:24:01.990Z,28.38
2019-01-28T18:26:36.557Z,28.07
2019-01-28T18:29:11.580Z,28.13
2019-01-28T18:31:46.519Z,26.25
2019-01-28T18:34:21.434Z,26.97
2019-01-28T18:36:55.965Z,27.20
2019-01-28T18:39:30.551Z,25.87
2019-01-28T18:42:05.561Z,26.13
2019-01-28T18:44:40.065Z,27.27
2019-01-28T18:47:15.465Z,25.87
2019-01-28T18:49:50.360Z,25.03
2019-01-28T18:52:44.413Z,25.40
2019-01-28T18:55:19.046Z,24.98
2019-01-28T18:57:53.945Z,26.17
2019-01-28T19:00:31.766Z,26.52
2019-01-28T19:03:06.501Z,26.30
2019-01-28T19:05:59.389Z,24.67
2019-01-28T19:08:55.248Z,24.20
2019-01-28T19:12:06.964Z,24.27
2019-01-28T19:14:59.822Z,24.80
2019-01-28T19:17:51.547Z,24.33
2019-01-28T19:20:31.537Z,26.27
2019-01-28T19:23:06.121Z,24.53
2019-01-28T19:25:40.635Z,25.07
2019-01-28T19:28:15.399Z,25.13
2019-01-28T19:30:50.225Z,25.00
2019-01-28T19:33:25.212Z,25.00
2019-01-28T19:35:59.816Z,24.90
2019-01-28T19:38:34.658Z,24.40
2019-01-28T19:41:09.403Z,24.73
2019-01-28T19:43:44.471Z,24.83
2019-01-28T19:46:19.087Z,24.07
2019-01-28T19:48:53.473Z,23.60
2019-01-28T19:51:28.658Z,23.47
2019-01-28T19:54:03.450Z,24.23
2019-01-28T19:56:40.340Z,23.43
2019-01-28T19:59:14.881Z,23.70
2019-01-28T20:01:50.137Z,24.27
2019-01-28T20:04:25.052Z,23.20
2019-01-28T20:07:00.195Z,23.37
2019-01-28T20:09:34.939Z,23.47
2019-01-28T20:12:09.915Z,23.00
2019-01-28T20:14:44.759Z,22.87
2019-01-28T20:17:19.906Z,23.10
2019-01-28T20:19:54.547Z,23.00
2019-01-28T20:22:36.217Z,22.57
2019-01-28T20:25:11.886Z,22.27
2019-01-28T20:27:47.143Z,22.30
2019-01-28T20:30:23.958Z,22.47
2019-01-28T20:32:59.002Z,22.00
2019-01-28T20:35:33.429Z,21.87
2019-01-28T20:38:15.359Z,22.17
2019-01-28T20:40:44.300Z,21.87
2019-01-28T20:43:23.845Z,21.97
2019-01-28T20:45:55.515Z,21.27
2019-01-28T20:48:30.102Z,21.43
2019-01-28T20:51:31.873Z,21.03
2019-01-28T20:54:00.510Z,21.10
2019-01-28T20:56:35.475Z,21.13
2019-01-28T20:59:10.698Z,21.37
2019-01-28T21:01:45.229Z,21.50
2019-01-28T21:04:20.139Z,22.07
2019-01-28T21:06:55.131Z,21.80
2019-01-28T21:09:30.220Z,20.53
2019-01-28T21:12:06.082Z,20.80
2019-01-28T21:14:40.510Z,21.10
2019-01-28T21:17:15.398Z,19.90
2019-01-28T21:19:50.276Z,20.03
2019-01-28T21:22:25.056Z,20.23
2019-01-28T21:24:59.841Z,20.30
2019-01-28T21:27:34.666Z,19.73
2019-01-28T21:30:10.763Z,20.17
2019-01-28T21:32:45.347Z,20.20
2019-01-28T21:35:21.676Z,21.20
2019-01-28T21:38:01.464Z,20.33
2019-01-28T21:40:36.457Z,20.10
2019-01-28T21:43:30.411Z,20.17
2019-01-28T21:46:05.290Z,20.13
2019-01-28T21:48:40.202Z,19.30
2019-01-28T21:51:15.042Z,19.27
2019-01-28T21:53:49.926Z,19.50
2019-01-28T21:56:25.255Z,19.67
2019-01-28T21:58:59.964Z,19.83
2019-01-28T22:01:35.402Z,19.87
2019-01-28T22:04:09.860Z,18.43
2019-01-28T22:06:44.530Z,18.40
2019-01-28T22:09:19.661Z,17.80
2019-01-28T22:11:54.180Z,17.77
2019-01-28T22:14:28.790Z,19.97
2019-01-28T22:17:04.483Z,19.30
2019-01-28T22:19:39.215Z,19.53
2019-01-28T22:22:14.427Z,18.17
2019-01-28T22:24:49.095Z,18.10
2019-01-28T22:27:23.907Z,18.47
2019-01-28T22:29:58.782Z,18.00
2019-01-28T22:32:34.283Z,17.90
2019-01-28T22:35:10.130Z,17.83
2019-01-28T22:37:45.006Z,18.70
2019-01-28T22:40:20.309Z,18.20
2019-01-28T22:42:55.097Z,18.07
2019-01-28T22:45:29.883Z,18.33
2019-01-28T22:48:04.758Z,18.63
2019-01-28T22:50:39.741Z,18.50
2019-01-28T22:53:14.543Z,18.60
2019-01-28T22:55:49.294Z,18.10
2019-01-28T22:58:24.640Z,18.97
2019-01-28T23:01:20.193Z,18.73
2019-01-28T23:03:55.104Z,19.20
2019-01-28T23:06:30.221Z,18.93
2019-01-28T23:09:06.875Z,18.13
2019-01-28T23:11:41.979Z,17.63
2019-01-28T23:14:16.935Z,18.80
2019-01-28T23:16:51.124Z,18.50
2019-01-28T23:19:26.089Z,18.13
2019-01-28T23:22:20.233Z,18.13
2019-01-28T23:24:54.899Z,18.50
2019-01-28T23:27:30.148Z,19.37
2019-01-28T23:30:04.945Z,17.97
2019-01-28T23:32:39.806Z,19.80
2019-01-28T23:35:14.060Z,19.10
2019-01-28T23:37:48.795Z,19.13
2019-01-28T23:40:23.336Z,18.63
2019-01-28T23:42:59.788Z,18.17
2019-01-28T23:45:34.566Z,19.27
2019-01-28T23:48:10.606Z,19.80
2019-01-28T23:50:45.219Z,17.43
2019-01-28T23:53:19.983Z,19.90
2019-01-28T23:55:54.908Z,18.97
2019-01-28T23:58:30.009Z,19.67
